Time;durP1;ratioP1;P1;durP2;ratioP2;P2;SDS_P1;SDS_P2;PMS_P1;PMS_P2;Temp;Humidity;BMP_temperature;BMP_pressure;BME280_temperature;BME280_humidity;BME280_pressure;Samples;Min_cycle;Max_cycle;Signal;HPM_P1;HPM_P2
2021/10/30 00:00:51;;;;;;;13.57;8.93;;;10.00;65.50;;;;;;5032707;28;20390;-87
2021/10/30 00:03:18;;;;;;;14.07;9.03;;;10.00;65.70;;;;;;5048867;28;20048;-86
2021/10/30 00:05:46;;;;;;;11.67;6.70;;;9.90;65.60;;;;;;5033878;28;20388;-86
2021/10/30 00:08:12;;;;;;;11.23;6.07;;;9.90;65.70;;;;;;5032300;28;20052;-87
2021/10/30 00:10:38;;;;;;;11.43;7.40;;;9.90;65.60;;;;;;5031685;28;20040;-86
2021/10/30 00:13:04;;;;;;;11.63;6.40;;;9.80;65.60;;;;;;5030943;28;20025;-87
2021/10/30 00:15:30;;;;;;;9.40;4.93;;;9.80;65.80;;;;;;5042862;28;20030;-87
2021/10/30 00:17:56;;;;;;;9.93;6.23;;;9.80;65.70;;;;;;5031842;28;20030;-87
2021/10/30 00:20:23;;;;;;;9.50;6.47;;;9.70;65.70;;;;;;5035943;28;20021;-87
2021/10/30 00:22:48;;;;;;;9.67;5.83;;;9.70;65.90;;;;;;5032947;28;20100;-87
2021/10/30 00:25:14;;;;;;;14.17;4.20;;;9.70;65.90;;;;;;5032206;28;20112;-87
2021/10/30 00:27:41;;;;;;;10.77;4.50;;;9.60;66.00;;;;;;5032277;28;20057;-86
2021/10/30 00:30:07;;;;;;;5.47;2.93;;;9.40;66.30;;;;;;5033780;28;20017;-86
2021/10/30 00:32:33;;;;;;;5.13;3.13;;;9.40;66.60;;;;;;5013200;28;20088;-86
2021/10/30 00:34:59;;;;;;;6.87;3.23;;;9.50;66.20;;;;;;5011184;28;20416;-86
2021/10/30 00:37:25;;;;;;;5.00;2.80;;;9.40;66.10;;;;;;5012830;28;20026;-86
2021/10/30 00:39:52;;;;;;;7.77;4.47;;;9.40;66.20;;;;;;5011694;28;20031;-86
2021/10/30 00:42:18;;;;;;;8.60;4.23;;;9.50;66.10;;;;;;5012596;28;20492;-86
2021/10/30 00:44:44;;;;;;;9.37;4.13;;;9.50;66.00;;;;;;5012076;28;20029;-86
2021/10/30 00:47:10;;;;;;;6.50;2.50;;;9.60;65.80;;;;;;5015279;28;20034;-86
2021/10/30 00:49:35;;;;;;;5.07;2.30;;;9.50;65.60;;;;;;5011346;28;20034;-86
2021/10/30 00:52:02;;;;;;;6.27;2.00;;;9.50;65.50;;;;;;5011032;28;20054;-86
2021/10/30 00:54:28;;;;;;;8.93;2.90;;;9.50;65.50;;;;;;5024613;28;20508;-87
2021/10/30 00:56:57;;;;;;;4.87;1.83;;;9.60;65.20;;;;;;5016485;28;20667;-86
2021/10/30 00:59:23;;;;;;;2.93;1.37;;;9.60;64.90;;;;;;5011590;28;20026;-86
2021/10/30 01:01:50;;;;;;;3.43;1.57;;;9.50;64.90;;;;;;5019568;28;20096;-86
2021/10/30 01:04:17;;;;;;;3.13;1.80;;;9.60;64.70;;;;;;5012336;28;20045;-86
2021/10/30 01:06:46;;;;;;;3.07;1.77;;;9.60;64.50;;;;;;5012953;28;20112;-86
2021/10/30 01:09:12;;;;;;;2.40;1.60;;;9.50;64.40;;;;;;5010176;28;20568;-86
2021/10/30 01:11:39;;;;;;;2.77;1.30;;;9.50;64.40;;;;;;5026068;28;20037;-86
2021/10/30 01:14:08;;;;;;;3.20;1.60;;;9.40;64.50;;;;;;5011412;28;20025;-86
2021/10/30 01:16:33;;;;;;;5.33;2.00;;;9.40;64.50;;;;;;5014787;28;20126;-86
2021/10/30 01:19:00;;;;;;;4.40;1.83;;;9.40;64.30;;;;;;5002779;28;20116;-86
2021/10/30 01:21:28;;;;;;;7.23;2.70;;;9.40;64.50;;;;;;5010540;28;20033;-86
2021/10/30 01:23:55;;;;;;;3.30;2.13;;;9.40;64.60;;;;;;5006490;28;20432;-86
2021/10/30 01:26:23;;;;;;;2.80;2.30;;;9.40;64.60;;;;;;5019477;28;20472;-87
2021/10/30 01:28:51;;;;;;;5.17;2.20;;;9.50;64.80;;;;;;5013889;28;20108;-87
2021/10/30 01:31:18;;;;;;;3.70;2.27;;;9.50;64.80;;;;;;5021313;28;21740;-86
2021/10/30 01:33:46;;;;;;;4.97;2.13;;;9.40;64.80;;;;;;5043463;28;20017;-87
2021/10/30 01:36:13;;;;;;;16.00;3.00;;;9.40;65.00;;;;;;5019903;28;20045;-87
2021/10/30 01:38:39;;;;;;;5.93;3.20;;;9.40;65.10;;;;;;5030690;28;20033;-87
2021/10/30 01:41:05;;;;;;;3.77;2.43;;;9.40;65.20;;;;;;5031435;28;20037;-87
2021/10/30 01:43:31;;;;;;;8.37;3.60;;;9.40;65.10;;;;;;5036511;28;20472;-87
2021/10/30 01:45:57;;;;;;;3.17;2.03;;;9.40;65.10;;;;;;5034113;28;20029;-86
2021/10/30 01:48:37;;;;;;;4.23;1.50;;;9.40;65.00;;;;;;5034109;28;20051;-87
2021/10/30 01:51:05;;;;;;;2.90;1.43;;;9.40;65.00;;;;;;5053206;28;20063;-86
2021/10/30 01:53:30;;;;;;;1.90;1.20;;;9.40;64.70;;;;;;5034034;28;20028;-87
2021/10/30 01:55:56;;;;;;;3.43;1.70;;;9.30;64.80;;;;;;5032899;28;20029;-86
2021/10/30 01:58:22;;;;;;;2.37;1.50;;;9.30;64.90;;;;;;5036530;28;20124;-86
2021/10/30 02:00:50;;;;;;;4.77;2.60;;;9.30;65.10;;;;;;5025888;28;20024;-86
2021/10/30 02:03:17;;;;;;;8.37;4.93;;;9.40;65.00;;;;;;5029610;28;20033;-87
2021/10/30 02:05:43;;;;;;;9.23;5.93;;;9.40;65.10;;;;;;5034206;28;20025;-86
2021/10/30 02:08:09;;;;;;;10.70;5.53;;;9.40;65.20;;;;;;5031596;28;20106;-87
2021/10/30 02:10:35;;;;;;;10.73;5.70;;;9.40;65.30;;;;;;5033488;28;20029;-85
2021/10/30 02:13:01;;;;;;;12.60;4.60;;;9.40;65.40;;;;;;5038444;28;20036;-87
2021/10/30 02:15:27;;;;;;;5.40;3.07;;;9.30;65.40;;;;;;5055489;28;20035;-86
2021/10/30 02:17:52;;;;;;;8.53;2.27;;;9.30;65.30;;;;;;5032107;28;20040;-86
2021/10/30 02:20:19;;;;;;;2.90;1.70;;;9.30;65.30;;;;;;5033481;28;20021;-87
2021/10/30 02:22:51;;;;;;;5.77;1.80;;;9.30;65.50;;;;;;5032691;28;20029;-87
2021/10/30 02:25:17;;;;;;;2.73;1.70;;;9.30;65.40;;;;;;5018026;28;20063;-87
2021/10/30 02:27:42;;;;;;;4.70;1.70;;;9.30;65.20;;;;;;5052186;28;20055;-87
2021/10/30 02:30:08;;;;;;;5.73;1.73;;;9.20;65.20;;;;;;5033643;28;20219;-86
2021/10/30 02:32:34;;;;;;;5.13;1.90;;;9.20;65.40;;;;;;5030312;28;20064;-86
2021/10/30 02:35:00;;;;;;;4.07;1.73;;;9.20;65.30;;;;;;5032292;28;20488;-86
2021/10/30 02:37:26;;;;;;;4.43;2.37;;;9.20;65.10;;;;;;5034686;28;20032;-86
2021/10/30 02:39:52;;;;;;;8.77;4.10;;;9.30;65.10;;;;;;5036142;28;20444;-86
2021/10/30 02:42:18;;;;;;;6.10;3.17;;;9.10;65.20;;;;;;5028074;28;20140;-87
2021/10/30 02:44:43;;;;;;;5.80;2.90;;;9.10;65.50;;;;;;5033564;28;20037;-87
2021/10/30 02:47:09;;;;;;;4.50;3.03;;;9.10;65.60;;;;;;5034130;28;20033;-87
2021/10/30 02:49:35;;;;;;;7.20;4.27;;;9.10;65.60;;;;;;5051865;28;20032;-86
2021/10/30 02:52:00;;;;;;;4.70;3.33;;;9.10;65.80;;;;;;5033198;28;20055;-86
2021/10/30 02:54:26;;;;;;;4.97;2.73;;;9.10;65.80;;;;;;5032492;28;20048;-86
2021/10/30 02:56:52;;;;;;;5.23;3.20;;;9.20;65.80;;;;;;5033297;28;20048;-87
2021/10/30 02:59:18;;;;;;;6.83;3.03;;;9.10;65.80;;;;;;5033355;28;20029;-87
2021/10/30 03:01:44;;;;;;;4.80;2.83;;;9.10;65.80;;;;;;5031344;28;20112;-87
2021/10/30 03:04:10;;;;;;;8.23;2.40;;;9.10;65.80;;;;;;5032825;28;20029;-88
2021/10/30 03:06:36;;;;;;;4.33;2.80;;;9.00;66.00;;;;;;5026406;28;20033;-87
2021/10/30 03:09:03;;;;;;;7.90;2.80;;;9.00;66.10;;;;;;5046004;28;20025;-87
2021/10/30 03:11:29;;;;;;;5.10;2.37;;;8.90;65.90;;;;;;5036215;28;20041;-87
2021/10/30 03:13:54;;;;;;;5.73;1.73;;;9.00;65.80;;;;;;5036234;28;20082;-85
2021/10/30 03:16:21;;;;;;;4.90;2.00;;;9.00;65.60;;;;;;5041293;28;20115;-86
2021/10/30 03:18:47;;;;;;;3.07;1.60;;;9.00;65.70;;;;;;5036313;28;20025;-86
2021/10/30 03:21:14;;;;;;;2.67;1.23;;;9.00;66.20;;;;;;5050145;28;20498;-85
2021/10/30 03:23:39;;;;;;;5.40;3.23;;;8.90;65.50;;;;;;5036632;28;20029;-86
2021/10/30 03:26:05;;;;;;;5.83;1.87;;;8.90;65.70;;;;;;5036210;28;20040;-86
2021/10/30 03:28:31;;;;;;;7.33;2.90;;;8.90;65.70;;;;;;5036537;28;20028;-87
2021/10/30 03:30:57;;;;;;;11.50;4.83;;;8.90;65.70;;;;;;5056606;28;20036;-86
2021/10/30 03:33:23;;;;;;;13.97;5.40;;;8.90;65.80;;;;;;5033733;28;20029;-85
2021/10/30 03:35:49;;;;;;;15.33;6.50;;;9.00;65.80;;;;;;5048330;28;20169;-86
2021/10/30 03:38:15;;;;;;;11.83;6.63;;;8.90;66.00;;;;;;5049178;28;20025;-85
2021/10/30 03:40:41;;;;;;;13.53;5.50;;;8.80;66.20;;;;;;5046021;28;20036;-86
2021/10/30 03:43:07;;;;;;;13.57;5.80;;;8.90;66.50;;;;;;5037220;28;20116;-86
2021/10/30 03:45:33;;;;;;;15.57;5.10;;;8.80;66.30;;;;;;5036306;28;20507;-86
2021/10/30 03:48:07;;;;;;;12.33;4.30;;;8.80;66.40;;;;;;5035907;28;20115;-86
2021/10/30 03:50:34;;;;;;;7.83;3.87;;;8.70;66.40;;;;;;5028257;28;20076;-85
2021/10/30 03:53:00;;;;;;;8.13;3.97;;;8.80;66.30;;;;;;5036246;28;20053;-87
2021/10/30 03:55:26;;;;;;;7.03;3.77;;;8.80;66.30;;;;;;5036287;28;20068;-87
2021/10/30 03:57:52;;;;;;;6.40;3.47;;;8.80;66.30;;;;;;5036989;28;20029;-87
2021/10/30 04:00:18;;;;;;;7.13;3.03;;;8.80;66.30;;;;;;5036062;28;20082;-87
2021/10/30 04:02:44;;;;;;;7.27;2.47;;;8.80;66.00;;;;;;5035823;28;20060;-86
2021/10/30 04:05:10;;;;;;;9.73;2.87;;;8.70;66.00;;;;;;5025308;28;20033;-87
2021/10/30 04:07:36;;;;;;;5.37;2.73;;;8.80;65.90;;;;;;5040920;28;20660;-86
2021/10/30 04:10:02;;;;;;;5.27;2.30;;;8.80;66.00;;;;;;5020656;28;20028;-87
2021/10/30 04:12:28;;;;;;;5.27;2.60;;;8.70;66.00;;;;;;5050485;28;20025;-87
2021/10/30 04:14:54;;;;;;;4.40;1.33;;;8.70;65.90;;;;;;5035585;28;20123;-86
2021/10/30 04:17:19;;;;;;;4.30;2.13;;;8.80;65.80;;;;;;5037266;28;20112;-86
2021/10/30 04:19:45;;;;;;;3.83;1.40;;;8.70;65.50;;;;;;5040362;28;20541;-86
2021/10/30 04:22:11;;;;;;;3.53;1.80;;;8.70;65.70;;;;;;5052926;28;20025;-86
2021/10/30 04:24:37;;;;;;;2.53;1.53;;;8.70;65.60;;;;;;5053797;28;20059;-87
2021/10/30 04:27:03;;;;;;;2.70;1.80;;;8.60;65.60;;;;;;5035132;28;20498;-87
2021/10/30 04:29:29;;;;;;;4.77;1.90;;;8.60;65.70;;;;;;5035748;28;20040;-86
2021/10/30 04:31:57;;;;;;;7.70;3.83;;;8.70;65.70;;;;;;5050300;28;20087;-87
2021/10/30 04:34:33;;;;;;;4.37;2.80;;;8.60;65.60;;;;;;5054806;28;20471;-86
2021/10/30 04:37:02;;;;;;;4.43;2.10;;;8.50;65.60;;;;;;5035578;28;20400;-85
2021/10/30 04:39:27;;;;;;;4.87;2.40;;;8.50;65.90;;;;;;5035214;28;20036;-86
2021/10/30 04:41:53;;;;;;;4.30;2.70;;;8.50;65.80;;;;;;5029686;28;20112;-86
2021/10/30 04:44:19;;;;;;;8.97;3.80;;;8.50;65.70;;;;;;5035241;28;20028;-87
2021/10/30 04:46:44;;;;;;;14.87;5.40;;;8.50;65.70;;;;;;5041123;28;20079;-86
2021/10/30 04:49:10;;;;;;;10.60;5.63;;;8.50;65.80;;;;;;5027623;28;20120;-86
2021/10/30 04:51:36;;;;;;;7.63;4.47;;;8.40;65.90;;;;;;5034605;28;20502;-88
2021/10/30 04:54:02;;;;;;;5.13;2.60;;;8.40;66.20;;;;;;5030367;28;20038;-87
2021/10/30 04:56:27;;;;;;;5.67;3.13;;;8.20;66.10;;;;;;5027646;28;20039;-88
2021/10/30 04:58:53;;;;;;;10.23;4.47;;;8.30;66.40;;;;;;5029567;28;20518;-88
2021/10/30 05:01:19;;;;;;;5.00;2.90;;;8.30;66.40;;;;;;5027594;28;20051;-88
2021/10/30 05:03:45;;;;;;;5.07;3.00;;;8.20;66.40;;;;;;5015542;28;20030;-89
2021/10/30 05:06:12;;;;;;;8.20;2.97;;;8.20;66.40;;;;;;5015722;28;20104;-88
2021/10/30 05:08:39;;;;;;;7.83;3.50;;;8.20;66.30;;;;;;5034445;28;20487;-87
2021/10/30 05:11:07;;;;;;;5.07;3.80;;;8.10;66.30;;;;;;5030732;28;20036;-86
2021/10/30 05:13:33;;;;;;;6.30;3.23;;;8.20;66.40;;;;;;5030417;28;20029;-86
2021/10/30 05:15:59;;;;;;;9.97;4.77;;;8.10;66.30;;;;;;5031718;28;20128;-86
2021/10/30 05:18:25;;;;;;;7.57;4.33;;;8.20;66.20;;;;;;5034940;28;20534;-87
2021/10/30 05:20:51;;;;;;;6.63;4.53;;;8.20;66.00;;;;;;5051656;28;20498;-86
2021/10/30 05:23:17;;;;;;;7.10;4.90;;;8.10;65.90;;;;;;5020266;28;20028;-87
2021/10/30 05:25:43;;;;;;;6.43;4.50;;;8.20;65.70;;;;;;5035335;28;20111;-86
2021/10/30 05:28:09;;;;;;;10.13;4.87;;;8.10;65.60;;;;;;5030994;28;20121;-86
2021/10/30 05:30:35;;;;;;;7.17;4.80;;;8.10;65.60;;;;;;5031455;28;20025;-85
2021/10/30 05:33:01;;;;;;;10.57;4.30;;;8.00;65.60;;;;;;5011223;28;20064;-86
2021/10/30 05:35:27;;;;;;;11.50;6.47;;;8.10;65.60;;;;;;5041652;28;20483;-86
2021/10/30 05:37:53;;;;;;;8.27;5.27;;;8.00;65.30;;;;;;5028513;28;20032;-86
2021/10/30 05:40:22;;;;;;;11.63;6.40;;;7.90;65.60;;;;;;5029604;28;20058;-86
2021/10/30 05:42:47;;;;;;;10.00;5.50;;;7.90;65.60;;;;;;5036145;28;20108;-86
2021/10/30 05:45:13;;;;;;;8.50;5.50;;;7.90;65.80;;;;;;5034011;28;20063;-87
2021/10/30 05:47:39;;;;;;;10.03;5.93;;;7.90;65.70;;;;;;5034185;28;20033;-87
2021/10/30 05:50:07;;;;;;;9.27;4.27;;;7.90;65.40;;;;;;5034690;28;20075;-86
2021/10/30 05:52:32;;;;;;;8.43;5.13;;;7.90;65.40;;;;;;5034723;28;20036;-87
2021/10/30 05:54:58;;;;;;;8.67;5.17;;;7.90;65.10;;;;;;5040585;28;20040;-87
2021/10/30 05:57:25;;;;;;;7.30;5.10;;;7.90;65.00;;;;;;5041295;28;20373;-86
2021/10/30 05:59:51;;;;;;;16.97;6.97;;;7.90;64.90;;;;;;5036048;28;20047;-87
2021/10/30 06:02:17;;;;;;;10.30;5.40;;;7.80;65.10;;;;;;5034221;28;20469;-86
2021/10/30 06:04:42;;;;;;;9.13;5.50;;;7.80;65.20;;;;;;5035227;28;20123;-87
2021/10/30 06:07:09;;;;;;;10.43;5.87;;;7.70;65.20;;;;;;5035681;28;20021;-87
2021/10/30 06:09:35;;;;;;;13.70;7.87;;;7.80;65.20;;;;;;5033779;28;20511;-87
2021/10/30 06:12:01;;;;;;;10.40;6.60;;;7.70;65.10;;;;;;5033820;28;20021;-87
2021/10/30 06:14:27;;;;;;;11.40;6.50;;;7.70;65.20;;;;;;5032487;28;20028;-87
2021/10/30 06:16:53;;;;;;;12.87;6.63;;;7.70;65.50;;;;;;5036009;28;20115;-86
2021/10/30 06:19:19;;;;;;;13.50;6.37;;;7.60;65.50;;;;;;5045608;28;20029;-87
2021/10/30 06:21:45;;;;;;;15.20;6.83;;;7.70;65.30;;;;;;5034951;28;20025;-87
2021/10/30 06:24:11;;;;;;;8.70;4.77;;;7.70;65.30;;;;;;5033089;28;20024;-86
2021/10/30 06:26:37;;;;;;;6.83;4.03;;;7.70;65.30;;;;;;5033721;28;20096;-86
2021/10/30 06:29:03;;;;;;;12.10;6.97;;;7.70;65.30;;;;;;5033319;28;20033;-86
2021/10/30 06:31:29;;;;;;;10.93;7.10;;;7.70;65.00;;;;;;5048053;28;20040;-86
2021/10/30 06:33:55;;;;;;;12.17;6.87;;;7.70;65.00;;;;;;5033847;28;20039;-88
2021/10/30 06:36:20;;;;;;;10.70;5.80;;;7.70;65.00;;;;;;5031545;28;20025;-85
2021/10/30 06:38:49;;;;;;;13.17;7.93;;;7.70;64.90;;;;;;5032280;28;20032;-86
2021/10/30 06:41:15;;;;;;;10.77;6.63;;;7.70;64.90;;;;;;5030498;28;20368;-85
2021/10/30 06:43:41;;;;;;;12.23;6.40;;;7.60;64.60;;;;;;5022012;28;20040;-88
2021/10/30 06:46:08;;;;;;;12.97;7.50;;;7.70;65.00;;;;;;5035111;28;20033;-88
2021/10/30 06:48:34;;;;;;;11.70;6.70;;;7.70;64.70;;;;;;5035748;28;20064;-88
2021/10/30 06:51:00;;;;;;;16.37;7.20;;;7.60;64.80;;;;;;5055727;28;20486;-85
2021/10/30 06:53:26;;;;;;;13.70;6.73;;;7.60;64.80;;;;;;5038256;28;20040;-88
2021/10/30 06:55:54;;;;;;;10.20;7.40;;;7.60;64.70;;;;;;5054950;28;20025;-86
2021/10/30 06:58:21;;;;;;;9.63;6.13;;;7.60;64.80;;;;;;5052367;28;20119;-85
2021/10/30 07:00:47;;;;;;;15.27;7.00;;;7.60;65.00;;;;;;5038505;28;20044;-86
2021/10/30 07:03:12;;;;;;;15.13;6.60;;;7.60;65.20;;;;;;5037285;28;20033;-84
2021/10/30 07:05:40;;;;;;;12.40;6.93;;;7.60;65.30;;;;;;5037567;28;20029;-85
2021/10/30 07:08:05;;;;;;;15.83;7.40;;;7.60;65.50;;;;;;5053967;28;20859;-85
2021/10/30 07:10:31;;;;;;;19.17;10.03;;;7.70;65.60;;;;;;5037101;28;20036;-86
2021/10/30 07:13:25;;;;;;;13.43;7.57;;;7.70;65.70;;;;;;5032950;28;20044;-87
2021/10/30 07:16:15;;;;;;;13.50;7.80;;;7.60;65.80;;;;;;5037195;28;20082;-87
2021/10/30 07:18:45;;;;;;;14.23;8.77;;;7.60;65.70;;;;;;5036712;28;20037;-88
2021/10/30 07:21:12;;;;;;;23.43;12.00;;;7.60;65.80;;;;;;5037317;28;20025;-89
2021/10/30 07:23:38;;;;;;;16.27;10.57;;;7.60;65.60;;;;;;5029545;28;20065;-87
2021/10/30 07:26:05;;;;;;;20.80;10.83;;;7.70;65.50;;;;;;5038800;28;20083;-85
2021/10/30 07:28:46;;;;;;;25.30;14.30;;;7.60;65.40;;;;;;5033645;28;20033;-84
2021/10/30 07:31:13;;;;;;;27.17;12.73;;;7.60;65.70;;;;;;5038454;28;20040;-84
2021/10/30 07:33:39;;;;;;;36.20;15.80;;;7.70;65.80;;;;;;5026845;28;20041;-84
2021/10/30 07:36:05;;;;;;;30.13;18.33;;;7.70;66.00;;;;;;5036927;28;20515;-86
2021/10/30 07:38:30;;;;;;;27.50;16.90;;;7.70;66.30;;;;;;5033946;28;20787;-86
2021/10/30 07:40:56;;;;;;;33.40;16.13;;;7.70;66.40;;;;;;5037851;28;20021;-87
2021/10/30 07:43:22;;;;;;;33.27;20.40;;;7.70;66.50;;;;;;5063063;23;20057;-80
2021/10/30 07:45:48;;;;;;;28.63;14.87;;;7.60;66.70;;;;;;5034149;28;20378;-80
2021/10/30 07:48:13;;;;;;;22.57;14.93;;;7.70;66.80;;;;;;5033953;28;20388;-80
2021/10/30 07:50:39;;;;;;;29.37;17.67;;;7.70;66.60;;;;;;5033234;28;20033;-80
2021/10/30 07:53:05;;;;;;;27.93;16.47;;;7.70;66.60;;;;;;5033669;28;20106;-81
2021/10/30 07:55:30;;;;;;;19.40;12.30;;;7.70;66.70;;;;;;5030002;28;20076;-80
2021/10/30 07:57:57;;;;;;;25.27;13.17;;;7.70;66.60;;;;;;5024288;28;20072;-80
2021/10/30 08:00:24;;;;;;;25.00;13.27;;;7.90;66.60;;;;;;5017242;28;20034;-80
2021/10/30 08:02:49;;;;;;;19.13;12.57;;;7.80;66.30;;;;;;5015109;28;20500;-80
2021/10/30 08:05:15;;;;;;;15.53;10.77;;;7.80;66.60;;;;;;5024499;28;20030;-81
2021/10/30 08:07:44;;;;;;;22.37;11.47;;;7.90;66.70;;;;;;5018505;28;20483;-80
2021/10/30 08:10:11;;;;;;;30.17;15.53;;;8.00;66.80;;;;;;5030306;28;20495;-81
2021/10/30 08:12:37;;;;;;;30.47;15.60;;;8.10;66.40;;;;;;5032845;28;20042;-81
2021/10/30 08:15:05;;;;;;;37.10;17.10;;;8.10;66.40;;;;;;5014349;28;20029;-81
2021/10/30 08:17:33;;;;;;;26.97;15.17;;;8.30;66.20;;;;;;5013305;28;20048;-81
2021/10/30 08:20:00;;;;;;;28.50;15.47;;;9.10;64.80;;;;;;5029890;28;20037;-81
2021/10/30 08:22:25;;;;;;;23.20;12.30;;;10.00;62.60;;;;;;5012866;28;20068;-81
2021/10/30 08:24:51;;;;;;;24.85;14.43;;;11.10;62.30;;;;;;5013243;28;20053;-81
2021/10/30 08:27:17;;;;;;;20.20;11.38;;;12.60;61.30;;;;;;5030595;28;20547;-82
2021/10/30 08:29:44;;;;;;;14.40;10.52;;;14.00;59.60;;;;;;5032128;28;20032;-82
2021/10/30 08:32:11;;;;;;;17.48;12.30;;;14.90;58.30;;;;;;5032976;28;20030;-81
2021/10/30 08:34:37;;;;;;;16.77;12.88;;;15.30;57.90;;;;;;5033889;28;20028;-82
2021/10/30 08:37:04;;;;;;;17.70;11.40;;;15.30;57.00;;;;;;5032818;28;20036;-81
2021/10/30 08:39:30;;;;;;;16.45;10.88;;;15.20;57.00;;;;;;5033719;28;20026;-82
2021/10/30 08:41:58;;;;;;;15.73;10.20;;;15.10;56.20;;;;;;5030574;28;20488;-81
2021/10/30 08:44:24;;;;;;;17.02;9.63;;;14.80;54.80;;;;;;5040884;28;20113;-81
2021/10/30 08:46:51;;;;;;;9.68;8.27;;;14.50;54.50;;;;;;5031913;28;20112;-81
2021/10/30 08:49:18;;;;;;;15.73;10.30;;;14.20;54.00;;;;;;5032162;28;20487;-81
2021/10/30 08:51:44;;;;;;;11.88;9.32;;;13.70;53.30;;;;;;5033724;28;20447;-81
2021/10/30 08:54:11;;;;;;;14.60;8.57;;;13.40;53.70;;;;;;5029172;28;20117;-81
2021/10/30 08:56:38;;;;;;;13.40;8.45;;;13.20;53.70;;;;;;5029275;28;20045;-81
2021/10/30 08:59:08;;;;;;;13.88;8.90;;;13.00;53.80;;;;;;5029063;28;20109;-81
2021/10/30 09:01:49;;;;;;;11.80;7.93;;;12.80;53.80;;;;;;5032187;28;20029;-81
2021/10/30 09:04:16;;;;;;;13.75;7.38;;;12.90;54.20;;;;;;5031830;28;20028;-81
2021/10/30 09:07:05;;;;;;;9.90;7.57;;;12.80;54.10;;;;;;5032121;28;20036;-81
2021/10/30 09:09:31;;;;;;;10.20;6.82;;;13.00;53.60;;;;;;5031702;28;20108;-82
2021/10/30 09:12:03;;;;;;;10.40;7.15;;;13.00;53.80;;;;;;5031968;28;20021;-81
2021/10/30 09:14:33;;;;;;;9.68;6.60;;;13.20;53.80;;;;;;5033175;28;20087;-82
2021/10/30 09:17:15;;;;;;;7.88;6.13;;;13.40;54.20;;;;;;5032063;28;20056;-82
2021/10/30 09:19:52;;;;;;;8.70;6.53;;;13.60;54.00;;;;;;5031573;28;20499;-81
2021/10/30 09:22:20;;;;;;;10.90;6.75;;;13.80;53.10;;;;;;5033249;28;20026;-82
2021/10/30 09:25:04;;;;;;;8.65;5.95;;;13.80;52.80;;;;;;5031893;28;20076;-82
2021/10/30 09:27:50;;;;;;;15.50;8.13;;;14.00;52.40;;;;;;5033308;28;20445;-82
2021/10/30 09:30:36;;;;;;;13.07;6.97;;;14.00;51.90;;;;;;5031838;28;20017;-82
2021/10/30 09:33:05;;;;;;;8.73;5.15;;;14.20;51.60;;;;;;5032091;28;20033;-81
2021/10/30 09:35:43;;;;;;;10.70;6.15;;;14.30;51.30;;;;;;5031516;28;20021;-82
2021/10/30 09:38:21;;;;;;;11.27;6.40;;;14.70;50.50;;;;;;5031060;28;20032;-81
2021/10/30 09:40:47;;;;;;;11.18;5.95;;;15.00;50.20;;;;;;5032926;28;20033;-82
2021/10/30 09:43:21;;;;;;;13.45;6.68;;;15.20;50.00;;;;;;5032520;28;20025;-82
2021/10/30 09:45:54;;;;;;;13.95;6.45;;;15.40;49.60;;;;;;5032768;28;20035;-82
2021/10/30 09:48:23;;;;;;;10.48;6.60;;;15.40;49.70;;;;;;5027749;28;20017;-82
2021/10/30 09:50:54;;;;;;;13.98;6.50;;;15.50;49.70;;;;;;5030608;28;20039;-82
2021/10/30 09:53:32;;;;;;;9.38;6.30;;;15.50;49.90;;;;;;5032575;28;20559;-82
2021/10/30 09:56:06;;;;;;;11.80;6.68;;;15.70;49.50;;;;;;5031447;28;20384;-82
2021/10/30 09:58:35;;;;;;;9.57;5.40;;;15.80;49.20;;;;;;5031143;28;20108;-82
2021/10/30 10:01:05;;;;;;;10.70;5.40;;;15.90;48.90;;;;;;5030806;28;20493;-82
2021/10/30 10:03:32;;;;;;;9.18;4.40;;;16.10;48.40;;;;;;5031203;28;20123;-82
2021/10/30 10:06:04;;;;;;;6.28;4.32;;;16.20;47.70;;;;;;5032335;28;20029;-82
2021/10/30 10:08:30;;;;;;;10.90;4.67;;;16.30;47.20;;;;;;5030914;28;20469;-82
2021/10/30 10:10:58;;;;;;;6.47;4.38;;;16.40;46.80;;;;;;5032503;28;20018;-82
2021/10/30 10:13:24;;;;;;;10.90;3.47;;;16.60;45.50;;;;;;5032030;28;20140;-82
2021/10/30 10:15:53;;;;;;;14.00;11.23;;;16.70;44.50;;;;;;5032589;28;20101;-82
2021/10/30 10:18:20;;;;;;;11.75;9.20;;;16.80;43.90;;;;;;5032501;28;20022;-82
2021/10/30 10:20:47;;;;;;;7.03;4.60;;;16.90;43.90;;;;;;5031743;28;20120;-82
2021/10/30 10:23:15;;;;;;;4.82;3.67;;;17.00;43.30;;;;;;5042051;28;20471;-82
2021/10/30 10:25:49;;;;;;;2.38;1.35;;;17.10;42.30;;;;;;5044500;28;20025;-82
2021/10/30 10:28:36;;;;;;;4.78;1.90;;;17.50;39.00;;;;;;5036327;28;20026;-82
2021/10/30 10:31:04;;;;;;;3.17;1.00;;;17.90;37.40;;;;;;5035251;28;20030;-82
2021/10/30 10:33:30;;;;;;;2.67;1.00;;;18.40;35.40;;;;;;5035242;28;20368;-82
2021/10/30 10:36:18;;;;;;;1.20;0.70;;;18.80;33.80;;;;;;5034852;28;20017;-82
2021/10/30 10:38:56;;;;;;;4.53;0.70;;;19.20;31.40;;;;;;5034831;28;20036;-82
2021/10/30 10:41:40;;;;;;;1.13;0.70;;;19.60;29.60;;;;;;5036210;28;20112;-82
2021/10/30 10:44:12;;;;;;;5.10;1.10;;;19.80;29.20;;;;;;5031003;28;20392;-82
2021/10/30 10:46:48;;;;;;;4.05;0.80;;;20.10;28.50;;;;;;5015028;28;20030;-82
2021/10/30 10:49:45;;;;;;;5.72;0.80;;;20.40;27.20;;;;;;5026245;28;20029;-82
2021/10/30 10:52:23;;;;;;;4.20;0.70;;;20.60;26.00;;;;;;5033948;28;20026;-82
2021/10/30 10:54:54;;;;;;;3.65;0.55;;;20.80;25.90;;;;;;5035730;28;20022;-82
2021/10/30 10:57:40;;;;;;;4.38;0.50;;;20.90;25.50;;;;;;5019598;28;20033;-82
2021/10/30 11:00:11;;;;;;;9.68;0.80;;;21.00;25.10;;;;;;5029155;28;20033;-82
2021/10/30 11:02:49;;;;;;;9.73;0.77;;;21.10;24.50;;;;;;5034486;28;20120;-82
2021/10/30 11:05:18;;;;;;;2.83;0.40;;;21.30;23.80;;;;;;5033847;28;20030;-82
2021/10/30 11:08:00;;;;;;;1.58;0.50;;;21.40;24.10;;;;;;5034932;28;20473;-83
2021/10/30 11:10:34;;;;;;;2.83;0.50;;;21.60;23.40;;;;;;5035334;28;20473;-82
2021/10/30 11:13:00;;;;;;;4.03;0.50;;;21.70;23.30;;;;;;5034055;28;20272;-83
2021/10/30 11:15:30;;;;;;;3.47;0.50;;;21.80;22.90;;;;;;5034203;28;20029;-83
2021/10/30 11:18:02;;;;;;;2.92;0.70;;;21.80;22.80;;;;;;5035575;28;20034;-82
2021/10/30 11:20:39;;;;;;;14.93;1.02;;;21.90;22.90;;;;;;5034561;28;20073;-82
2021/10/30 11:23:14;;;;;;;4.22;0.50;;;21.90;22.40;;;;;;5035076;28;20018;-82
2021/10/30 11:25:39;;;;;;;6.05;0.70;;;21.90;22.60;;;;;;5034163;28;20028;-82
2021/10/30 11:28:06;;;;;;;3.33;0.40;;;21.90;23.00;;;;;;5035353;28;20610;-83
2021/10/30 11:30:42;;;;;;;3.58;0.40;;;22.00;22.90;;;;;;5033347;28;20030;-82
2021/10/30 11:33:28;;;;;;;3.10;0.47;;;22.00;22.00;;;;;;5034639;28;20025;-83
2021/10/30 11:36:04;;;;;;;3.47;0.85;;;22.10;22.00;;;;;;5034009;28;20026;-82
2021/10/30 11:38:31;;;;;;;1.35;0.70;;;22.10;21.40;;;;;;5033873;28;20037;-83
2021/10/30 11:41:04;;;;;;;4.32;0.82;;;22.20;21.50;;;;;;5034420;28;20392;-82
2021/10/30 11:43:31;;;;;;;10.20;0.80;;;22.20;21.50;;;;;;5033542;28;20048;-82
2021/10/30 11:46:05;;;;;;;2.25;0.40;;;22.20;21.60;;;;;;5015313;28;20030;-82
2021/10/30 11:48:42;;;;;;;10.13;0.80;;;22.30;21.10;;;;;;5014952;28;20045;-82
2021/10/30 11:51:09;;;;;;;6.28;0.50;;;22.30;20.90;;;;;;5030361;28;20028;-82
2021/10/30 11:53:39;;;;;;;4.13;0.63;;;22.30;21.00;;;;;;5035004;28;20017;-82
2021/10/30 11:56:11;;;;;;;1.85;0.40;;;22.30;20.90;;;;;;5033682;28;20021;-82
2021/10/30 11:58:47;;;;;;;3.05;0.85;;;22.30;20.60;;;;;;5033372;28;20040;-82
2021/10/30 12:01:30;;;;;;;0.60;0.47;;;22.30;21.20;;;;;;5027456;28;20029;-82
2021/10/30 12:04:02;;;;;;;5.20;0.60;;;22.10;22.00;;;;;;5013436;28;20088;-82
2021/10/30 12:06:32;;;;;;;4.07;0.40;;;22.20;21.60;;;;;;5015781;28;20034;-82
2021/10/30 12:09:00;;;;;;;4.75;0.40;;;22.20;21.30;;;;;;5034564;28;20029;-83
2021/10/30 12:11:26;;;;;;;9.60;1.23;;;22.20;21.40;;;;;;5033393;28;20021;-82
2021/10/30 12:13:56;;;;;;;8.48;0.75;;;22.20;21.00;;;;;;5033247;28;20025;-82
2021/10/30 12:16:22;;;;;;;9.75;0.63;;;22.20;20.70;;;;;;5034447;28;20021;-82
2021/10/30 12:18:48;;;;;;;7.47;0.60;;;22.20;20.70;;;;;;5033021;28;20083;-82
2021/10/30 12:21:15;;;;;;;4.35;0.60;;;22.10;20.60;;;;;;5034558;28;20104;-82
2021/10/30 12:23:52;;;;;;;6.20;0.73;;;22.10;20.40;;;;;;5033241;28;20057;-82
2021/10/30 12:26:18;;;;;;;4.43;0.70;;;22.10;20.00;;;;;;5034104;28;20029;-82
2021/10/30 12:28:43;;;;;;;7.25;0.75;;;22.00;20.20;;;;;;5034227;28;20021;-82
2021/10/30 12:31:12;;;;;;;1.83;0.50;;;22.10;20.00;;;;;;5032375;28;20021;-82
2021/10/30 12:33:38;;;;;;;3.38;0.40;;;22.10;20.00;;;;;;5031948;28;20026;-82
2021/10/30 12:36:05;;;;;;;1.40;0.50;;;22.10;20.00;;;;;;5033467;28;20021;-82
2021/10/30 12:38:31;;;;;;;4.07;0.65;;;22.20;19.90;;;;;;5033461;28;20030;-82
2021/10/30 12:40:57;;;;;;;14.88;0.95;;;22.20;19.90;;;;;;5031949;28;20570;-82
2021/10/30 12:43:24;;;;;;;2.65;0.40;;;22.20;19.80;;;;;;5031558;28;20037;-82
2021/10/30 12:45:56;;;;;;;4.80;0.40;;;22.20;20.00;;;;;;5033805;28;20443;-82
2021/10/30 12:48:25;;;;;;;3.83;0.60;;;22.20;19.70;;;;;;5031988;28;20412;-81
2021/10/30 12:50:59;;;;;;;3.65;0.65;;;22.20;19.80;;;;;;5032080;28;20023;-82
2021/10/30 12:53:27;;;;;;;4.28;0.60;;;22.30;19.70;;;;;;5012736;28;20065;-82